Time;durP1;ratioP1;P1;durP2;ratioP2;P2;SDS_P1;SDS_P2;PMS_P1;PMS_P2;Temp;Humidity;BMP_temperature;BMP_pressure;BME280_temperature;BME280_humidity;BME280_pressure;Samples;Min_cycle;Max_cycle;Signal;HPM_P1;HPM_P2
2021/07/26 00:00:59;;;;;;;15.43;4.32;;;20.40;99.90;;;;;;4037871;29;20177;-86
2021/07/26 00:03:00;;;;;;;11.70;4.22;;;19.90;99.90;;;;;;4037620;29;20177;-86
2021/07/26 00:05:01;;;;;;;8.18;4.28;;;19.60;99.90;;;;;;4036605;29;20269;-86
2021/07/26 00:07:01;;;;;;;12.05;3.20;;;19.50;99.90;;;;;;4067526;29;20657;-85
2021/07/26 00:09:02;;;;;;;6.90;3.25;;;19.30;99.90;;;;;;4021076;29;20225;-85
2021/07/26 00:11:07;;;;;;;10.55;3.60;;;19.40;99.90;;;;;;4051871;29;20177;-85
2021/07/26 00:13:08;;;;;;;6.43;3.25;;;19.50;99.90;;;;;;4051835;29;20219;-85
2021/07/26 00:15:11;;;;;;;9.30;3.70;;;19.80;99.90;;;;;;4020798;29;20199;-85
2021/07/26 00:17:11;;;;;;;6.30;3.03;;;19.80;99.90;;;;;;4036604;29;20193;-85
2021/07/26 00:19:12;;;;;;;8.48;3.38;;;19.90;99.90;;;;;;4038547;29;20233;-84
2021/07/26 00:21:13;;;;;;;6.40;3.30;;;20.00;99.90;;;;;;4054933;29;20714;-85
2021/07/26 00:23:14;;;;;;;9.00;3.40;;;20.00;99.90;;;;;;4024083;29;20192;-85
2021/07/26 00:25:15;;;;;;;5.93;3.63;;;20.10;99.90;;;;;;4054673;29;20252;-85
2021/07/26 00:27:16;;;;;;;6.50;3.28;;;20.10;99.90;;;;;;4040486;29;20174;-84
2021/07/26 00:29:17;;;;;;;9.15;3.90;;;20.20;99.90;;;;;;4054807;29;20173;-85
2021/07/26 00:31:18;;;;;;;9.32;4.10;;;20.20;99.90;;;;;;4070301;29;20180;-85
2021/07/26 00:36:02;;;;;;;9.32;4.63;;;20.00;99.90;;;;;;4038962;29;20217;-84
2021/07/26 00:38:03;;;;;;;6.05;3.72;;;20.00;99.90;;;;;;4054674;29;20529;-85
2021/07/26 00:40:08;;;;;;;12.27;4.53;;;20.00;99.90;;;;;;4039469;29;20260;-84
2021/07/26 00:42:09;;;;;;;5.93;3.85;;;20.00;99.90;;;;;;4023761;29;20182;-85
2021/07/26 00:44:10;;;;;;;12.50;4.05;;;20.00;99.90;;;;;;4039124;29;20185;-85
2021/07/26 00:46:11;;;;;;;7.55;4.05;;;20.00;99.90;;;;;;4054247;29;20713;-85
2021/07/26 00:48:11;;;;;;;9.13;3.88;;;19.90;99.90;;;;;;4039145;29;20186;-85
2021/07/26 00:50:13;;;;;;;7.05;4.25;;;19.90;99.90;;;;;;4070211;29;20171;-85
2021/07/26 00:52:14;;;;;;;9.32;4.35;;;19.90;99.90;;;;;;4054318;29;20185;-85
2021/07/26 00:54:17;;;;;;;7.90;4.10;;;19.80;99.90;;;;;;4022967;29;20775;-85
2021/07/26 00:56:18;;;;;;;14.95;4.28;;;19.80;99.90;;;;;;4023473;29;20216;-84
2021/07/26 00:58:19;;;;;;;18.15;4.82;;;19.80;99.90;;;;;;4038903;29;20185;-85
2021/07/26 01:00:20;;;;;;;12.02;4.43;;;19.60;99.90;;;;;;4038980;29;20719;-85
2021/07/26 01:02:20;;;;;;;11.02;4.45;;;19.60;99.90;;;;;;4023408;29;20356;-84
2021/07/26 01:04:21;;;;;;;10.20;4.60;;;19.60;99.90;;;;;;4038462;29;20189;-84
2021/07/26 01:06:22;;;;;;;12.50;4.72;;;19.60;99.90;;;;;;4054327;29;20673;-85
2021/07/26 01:08:23;;;;;;;10.70;4.70;;;19.50;99.90;;;;;;4038810;29;20221;-85
2021/07/26 01:10:23;;;;;;;13.63;4.82;;;19.50;99.90;;;;;;4070015;29;20169;-85
2021/07/26 01:12:24;;;;;;;12.55;4.43;;;19.30;99.90;;;;;;4023291;29;20695;-85
2021/07/26 01:14:26;;;;;;;7.55;4.28;;;19.10;99.90;;;;;;4038728;29;20229;-85
2021/07/26 01:16:27;;;;;;;7.78;4.68;;;19.10;99.90;;;;;;4038738;29;20178;-85
2021/07/26 01:18:32;;;;;;;9.30;4.65;;;19.00;99.90;;;;;;4038580;29;20213;-84
2021/07/26 01:20:33;;;;;;;7.30;4.35;;;19.00;99.90;;;;;;4038661;29;20643;-95
2021/07/26 01:22:33;;;;;;;7.40;4.70;;;18.90;99.90;;;;;;4038642;29;20266;-85
2021/07/26 01:24:34;;;;;;;13.07;5.38;;;18.80;99.90;;;;;;4053807;29;20197;-85
2021/07/26 01:26:35;;;;;;;12.05;5.22;;;18.70;99.90;;;;;;4038422;29;20173;-85
2021/07/26 01:28:41;;;;;;;10.75;5.03;;;18.50;99.90;;;;;;4054185;29;20180;-85
2021/07/26 01:30:43;;;;;;;11.27;5.70;;;18.40;99.90;;;;;;4023051;29;20185;-85
2021/07/26 01:32:43;;;;;;;13.65;5.40;;;18.30;99.90;;;;;;4053910;29;20219;-84
2021/07/26 01:34:44;;;;;;;8.27;4.95;;;18.30;99.90;;;;;;4038247;29;20288;-84
2021/07/26 01:36:44;;;;;;;11.07;5.05;;;18.30;99.90;;;;;;4038041;29;20182;-85
2021/07/26 01:38:46;;;;;;;14.95;5.43;;;18.30;99.90;;;;;;4038388;29;20264;-84
2021/07/26 01:40:53;;;;;;;18.55;6.20;;;18.30;99.90;;;;;;4038337;29;20234;-84
2021/07/26 01:43:00;;;;;;;11.48;5.35;;;18.30;99.90;;;;;;4038251;29;20173;-86
2021/07/26 01:45:01;;;;;;;12.73;5.88;;;18.30;99.90;;;;;;4022564;29;20713;-85
2021/07/26 01:47:08;;;;;;;17.02;5.43;;;18.20;99.90;;;;;;4038149;29;20166;-85
2021/07/26 01:49:28;;;;;;;17.65;5.38;;;18.10;99.90;;;;;;4053517;29;20184;-84
2021/07/26 01:51:49;;;;;;;16.83;6.22;;;18.10;99.90;;;;;;4053610;29;20563;-84
2021/07/26 01:53:50;;;;;;;13.77;5.65;;;18.10;99.90;;;;;;4053478;29;20304;-84
2021/07/26 01:55:50;;;;;;;16.02;5.75;;;18.10;99.90;;;;;;4022407;29;20687;-85
2021/07/26 01:57:52;;;;;;;19.98;5.68;;;18.20;99.90;;;;;;4022693;29;20263;-85
2021/07/26 01:59:53;;;;;;;13.40;5.55;;;18.20;99.90;;;;;;4053415;29;20267;-85
2021/07/26 02:01:53;;;;;;;14.40;5.90;;;18.30;99.90;;;;;;4022556;29;20222;-85
2021/07/26 02:03:56;;;;;;;15.00;5.70;;;18.30;99.90;;;;;;4053372;29;20180;-85
2021/07/26 02:05:57;;;;;;;19.52;6.13;;;18.30;99.90;;;;;;4037615;29;20202;-84
2021/07/26 02:07:57;;;;;;;14.02;5.70;;;18.40;99.90;;;;;;4053426;29;20201;-84
2021/07/26 02:09:58;;;;;;;14.38;5.75;;;18.40;99.90;;;;;;4022407;29;20182;-84
2021/07/26 02:11:59;;;;;;;16.13;5.72;;;18.40;99.90;;;;;;4053245;29;20177;-84
2021/07/26 02:14:00;;;;;;;14.73;5.72;;;18.50;99.90;;;;;;4022432;29;20304;-85
2021/07/26 02:16:01;;;;;;;15.75;6.13;;;18.40;99.90;;;;;;4053009;29;20279;-85
2021/07/26 02:18:01;;;;;;;10.07;5.50;;;18.40;99.90;;;;;;4037796;29;20588;-84
2021/07/26 02:20:04;;;;;;;15.60;5.68;;;18.30;99.90;;;;;;4022306;29;20275;-84
2021/07/26 02:22:05;;;;;;;20.70;6.57;;;18.20;99.90;;;;;;4037655;29;20217;-85
2021/07/26 02:24:07;;;;;;;17.05;5.35;;;18.30;99.90;;;;;;4022018;29;20227;-85
2021/07/26 02:26:08;;;;;;;12.02;5.53;;;18.30;99.90;;;;;;4037597;29;20245;-85
2021/07/26 02:28:09;;;;;;;9.85;4.97;;;18.20;99.90;;;;;;4068820;29;20169;-84
2021/07/26 02:30:10;;;;;;;16.88;5.53;;;18.30;99.90;;;;;;4037670;29;20735;-84
2021/07/26 02:32:10;;;;;;;19.80;5.43;;;18.30;99.90;;;;;;4037537;29;20180;-85
2021/07/26 02:34:11;;;;;;;15.55;5.28;;;18.30;99.90;;;;;;4038508;29;20253;-85
2021/07/26 02:36:12;;;;;;;12.55;5.78;;;18.30;99.90;;;;;;4037381;29;20225;-85
2021/07/26 02:38:12;;;;;;;14.23;5.65;;;18.30;99.90;;;;;;4037635;29;20199;-85
2021/07/26 02:40:13;;;;;;;9.18;5.20;;;18.30;99.90;;;;;;4022134;29;20207;-84
2021/07/26 02:42:14;;;;;;;11.25;5.43;;;18.40;99.90;;;;;;4038109;29;20671;-84
2021/07/26 02:44:14;;;;;;;15.52;4.82;;;18.40;99.90;;;;;;4037261;29;20264;-85
2021/07/26 02:46:15;;;;;;;18.20;6.25;;;18.40;99.90;;;;;;4038432;29;20189;-85
2021/07/26 02:48:16;;;;;;;15.13;5.38;;;18.40;99.90;;;;;;4037253;29;20662;-85
2021/07/26 02:50:16;;;;;;;13.32;4.90;;;18.40;99.90;;;;;;4037224;29;20651;-85
2021/07/26 02:52:17;;;;;;;15.85;4.80;;;18.30;99.90;;;;;;4038496;29;20166;-85
2021/07/26 02:54:18;;;;;;;10.60;5.72;;;18.40;99.90;;;;;;4036770;29;20686;-85
2021/07/26 02:56:18;;;;;;;18.55;6.15;;;18.30;99.90;;;;;;4038365;29;20643;-84
2021/07/26 02:58:22;;;;;;;19.55;5.60;;;18.30;99.90;;;;;;4037237;29;20177;-85
2021/07/26 03:00:23;;;;;;;13.65;5.60;;;18.30;99.90;;;;;;4037562;29;20623;-85
2021/07/26 03:02:23;;;;;;;22.13;5.72;;;18.30;99.90;;;;;;4052506;29;20215;-85
2021/07/26 03:04:24;;;;;;;9.98;5.28;;;18.30;99.90;;;;;;4036975;29;20174;-84
2021/07/26 03:06:25;;;;;;;23.23;6.30;;;18.30;99.90;;;;;;4036556;29;20631;-85
2021/07/26 03:08:28;;;;;;;19.00;6.70;;;18.20;99.90;;;;;;4037135;29;20665;-85
2021/07/26 03:10:28;;;;;;;14.93;6.60;;;18.20;99.90;;;;;;4037183;29;20173;-85
2021/07/26 03:12:29;;;;;;;14.50;5.97;;;18.30;99.90;;;;;;4036946;29;20182;-85
2021/07/26 03:14:29;;;;;;;17.30;5.95;;;18.30;99.90;;;;;;4021742;29;20233;-84
2021/07/26 03:16:30;;;;;;;16.23;6.03;;;18.10;99.90;;;;;;4052159;29;20173;-85
2021/07/26 03:18:31;;;;;;;15.25;5.97;;;18.00;99.90;;;;;;4052200;29;20519;-93
2021/07/26 03:20:31;;;;;;;19.50;6.53;;;18.00;99.90;;;;;;4036790;29;20655;-85
2021/07/26 03:22:51;;;;;;;15.10;6.45;;;17.90;99.90;;;;;;4021654;29;20175;-84
2021/07/26 03:24:52;;;;;;;19.73;6.45;;;17.90;99.90;;;;;;4036993;29;20197;-85
2021/07/26 03:26:52;;;;;;;18.02;6.28;;;17.80;99.90;;;;;;4036836;29;20193;-84
2021/07/26 03:28:53;;;;;;;21.58;7.32;;;17.70;99.90;;;;;;4021322;29;20226;-85
2021/07/26 03:30:53;;;;;;;18.60;6.93;;;17.60;99.90;;;;;;4036530;29;20241;-85
2021/07/26 03:32:54;;;;;;;20.00;6.60;;;17.60;99.90;;;;;;4021524;29;20262;-84
2021/07/26 03:34:55;;;;;;;14.73;6.55;;;17.60;99.90;;;;;;4036601;29;20201;-85
2021/07/26 03:36:55;;;;;;;19.75;6.55;;;17.60;99.90;;;;;;4052298;29;20638;-85
2021/07/26 03:38:56;;;;;;;17.17;7.32;;;17.50;99.90;;;;;;4037106;29;20188;-85
2021/07/26 03:40:57;;;;;;;17.73;6.47;;;17.60;99.90;;;;;;4052382;29;20634;-84
2021/07/26 03:42:57;;;;;;;15.95;6.63;;;17.60;99.90;;;;;;4036534;29;20177;-85
2021/07/26 03:44:58;;;;;;;21.23;7.10;;;17.70;99.90;;;;;;4051969;29;20259;-84
2021/07/26 03:46:59;;;;;;;18.45;7.32;;;17.70;99.90;;;;;;4036743;29;20197;-84
2021/07/26 03:48:59;;;;;;;19.60;7.03;;;17.70;99.90;;;;;;4036504;29;20209;-85
2021/07/26 03:51:00;;;;;;;15.57;6.68;;;17.80;99.90;;;;;;4036447;29;20211;-84
2021/07/26 03:53:01;;;;;;;20.80;7.38;;;17.80;99.90;;;;;;4036685;29;20595;-84
2021/07/26 03:55:01;;;;;;;18.77;7.68;;;17.80;99.90;;;;;;4039467;29;20213;-84
2021/07/26 03:57:02;;;;;;;28.85;8.10;;;17.80;99.90;;;;;;4024344;29;20174;-95
2021/07/26 03:59:03;;;;;;;20.33;7.25;;;17.90;99.90;;;;;;4055181;29;20184;-84
2021/07/26 04:01:03;;;;;;;16.05;7.30;;;18.00;99.90;;;;;;4040030;29;20535;-84
2021/07/26 04:05:30;;;;;;;17.40;7.28;;;18.10;99.90;;;;;;4040516;29;20194;-84
2021/07/26 04:07:35;;;;;;;18.15;6.72;;;18.10;99.90;;;;;;4055353;29;20180;-84
2021/07/26 04:09:43;;;;;;;21.90;7.22;;;18.00;99.90;;;;;;4055277;29;20658;-84
2021/07/26 04:11:46;;;;;;;27.38;7.35;;;18.00;99.90;;;;;;4039624;29;20655;-84
2021/07/26 04:13:53;;;;;;;18.08;7.32;;;18.00;99.90;;;;;;4024150;29;20213;-84
2021/07/26 04:15:54;;;;;;;20.92;7.03;;;18.00;99.90;;;;;;4024100;29;20297;-85
2021/07/26 04:17:54;;;;;;;20.90;7.95;;;18.00;99.90;;;;;;4039367;29;20229;-84
2021/07/26 04:19:55;;;;;;;17.98;7.32;;;18.00;99.90;;;;;;4070293;29;20180;-95
2021/07/26 04:21:59;;;;;;;19.73;7.50;;;18.00;99.90;;;;;;4024156;29;20185;-84
2021/07/26 04:24:02;;;;;;;21.45;7.03;;;18.10;99.90;;;;;;4054991;29;20181;-84
2021/07/26 04:26:05;;;;;;;18.58;7.85;;;18.10;99.90;;;;;;4054692;29;20227;-83
2021/07/26 04:28:07;;;;;;;22.77;7.13;;;18.10;99.90;;;;;;4055030;29;20271;-84
2021/07/26 04:30:08;;;;;;;19.25;7.43;;;18.10;99.90;;;;;;4039545;29;20170;-84
2021/07/26 04:32:10;;;;;;;23.92;7.82;;;18.10;99.90;;;;;;4054804;29;20188;-84
2021/07/26 04:34:11;;;;;;;17.13;7.25;;;18.00;99.90;;;;;;4054709;29;20670;-84
2021/07/26 04:36:11;;;;;;;21.85;7.00;;;18.10;99.90;;;;;;4038962;29;20209;-84
2021/07/26 04:38:12;;;;;;;20.77;7.80;;;18.20;99.90;;;;;;4054706;29;20224;-94
2021/07/26 04:40:13;;;;;;;18.25;7.70;;;18.30;99.90;;;;;;4039177;29;20181;-84
2021/07/26 04:42:14;;;;;;;17.95;7.13;;;18.30;99.90;;;;;;4023750;29;20190;-84
2021/07/26 04:44:15;;;;;;;23.77;7.45;;;18.30;99.90;;;;;;4039133;29;20538;-84
2021/07/26 04:46:15;;;;;;;18.67;8.00;;;18.50;99.90;;;;;;4054550;29;20207;-84
2021/07/26 04:48:16;;;;;;;20.55;7.55;;;18.60;99.90;;;;;;4023889;29;20182;-84
2021/07/26 04:50:17;;;;;;;19.42;7.28;;;18.70;99.90;;;;;;4038880;29;20189;-96
2021/07/26 04:52:18;;;;;;;25.05;7.50;;;18.70;99.90;;;;;;4038997;29;20317;-84
2021/07/26 04:54:19;;;;;;;21.10;7.18;;;18.70;99.90;;;;;;4038721;29;20619;-84
2021/07/26 04:56:19;;;;;;;22.17;7.55;;;18.90;99.90;;;;;;4023585;29;20643;-85
2021/07/26 04:58:20;;;;;;;17.20;6.55;;;19.00;99.90;;;;;;4054326;29;20177;-84
2021/07/26 05:00:21;;;;;;;18.30;7.00;;;19.10;99.90;;;;;;4038810;29;20193;-85
2021/07/26 05:02:21;;;;;;;17.05;6.60;;;19.10;99.90;;;;;;4038813;29;20188;-84
2021/07/26 05:04:22;;;;;;;14.52;6.07;;;18.90;99.90;;;;;;4053960;29;20538;-85
2021/07/26 05:06:23;;;;;;;17.33;5.90;;;18.80;99.90;;;;;;4039716;29;20169;-84
2021/07/26 05:08:23;;;;;;;20.05;6.03;;;18.80;99.90;;;;;;4038739;29;20199;-84
2021/07/26 05:10:24;;;;;;;13.48;5.93;;;18.80;99.90;;;;;;4054208;29;20633;-84
2021/07/26 05:12:24;;;;;;;16.67;5.28;;;18.80;99.90;;;;;;4023355;29;20171;-84
2021/07/26 05:14:25;;;;;;;17.05;5.63;;;18.80;99.90;;;;;;4038428;29;20221;-84
2021/07/26 05:16:26;;;;;;;17.38;5.70;;;18.80;99.90;;;;;;4023390;29;20174;-85
2021/07/26 05:18:26;;;;;;;13.95;5.65;;;18.80;99.90;;;;;;4023113;29;20233;-85
2021/07/26 05:20:27;;;;;;;18.05;5.70;;;18.90;99.90;;;;;;4038199;29;20173;-85
2021/07/26 05:22:28;;;;;;;18.15;5.13;;;18.90;99.90;;;;;;4038495;29;20181;-84
2021/07/26 05:24:28;;;;;;;13.02;5.50;;;19.00;99.90;;;;;;4038350;29;20193;-85
2021/07/26 05:26:29;;;;;;;21.13;5.45;;;19.00;99.90;;;;;;4038486;29;20264;-84
2021/07/26 05:28:30;;;;;;;8.75;5.07;;;19.00;99.90;;;;;;4023173;29;20245;-85
2021/07/26 05:30:30;;;;;;;19.70;5.40;;;19.10;99.90;;;;;;4038379;29;20182;-93
2021/07/26 05:32:31;;;;;;;19.70;5.80;;;19.30;99.90;;;;;;4038386;29;20675;-85
2021/07/26 05:34:32;;;;;;;20.42;6.03;;;19.30;99.90;;;;;;4023140;29;20226;-85
2021/07/26 05:36:32;;;;;;;13.75;5.30;;;19.40;99.90;;;;;;4053817;29;20180;-85
2021/07/26 05:38:33;;;;;;;13.60;6.55;;;19.30;99.90;;;;;;4039747;29;20178;-84
2021/07/26 05:40:33;;;;;;;19.13;5.90;;;19.30;99.90;;;;;;4023086;29;20174;-95
2021/07/26 05:42:35;;;;;;;16.92;6.18;;;19.50;99.90;;;;;;4038452;29;20228;-85
2021/07/26 05:44:39;;;;;;;15.95;5.78;;;19.50;99.90;;;;;;4038076;29;20631;-85
2021/07/26 05:46:40;;;;;;;17.17;6.75;;;19.50;99.90;;;;;;4053679;29;20272;-84
2021/07/26 05:48:40;;;;;;;14.93;6.40;;;19.60;99.90;;;;;;4022929;29;20201;-91
2021/07/26 05:50:41;;;;;;;19.45;6.95;;;19.60;99.90;;;;;;4069017;29;20183;-85
2021/07/26 05:52:42;;;;;;;23.55;7.03;;;19.80;99.90;;;;;;4023401;29;20178;-85
2021/07/26 05:54:42;;;;;;;16.08;6.95;;;19.90;99.90;;;;;;4053542;29;20197;-85
2021/07/26 05:56:45;;;;;;;20.77;5.85;;;20.10;99.90;;;;;;4038175;29;20225;-85
2021/07/26 05:58:48;;;;;;;13.05;6.57;;;20.10;99.90;;;;;;4038116;29;20684;-85
2021/07/26 06:01:08;;;;;;;15.70;6.68;;;20.00;99.90;;;;;;4022680;29;20186;-85
2021/07/26 06:03:08;;;;;;;17.00;6.15;;;19.80;99.90;;;;;;4039234;29;20261;-94
2021/07/26 06:05:09;;;;;;;15.27;5.88;;;19.80;99.90;;;;;;4038110;29;20699;-85
2021/07/26 06:07:10;;;;;;;24.13;7.10;;;19.80;99.90;;;;;;4038168;29;20637;-85
2021/07/26 06:09:11;;;;;;;17.67;7.47;;;19.90;99.90;;;;;;4037742;29;20189;-85
2021/07/26 06:11:12;;;;;;;18.17;6.47;;;20.00;99.90;;;;;;4038004;29;20178;-85
2021/07/26 06:13:13;;;;;;;17.10;6.47;;;20.00;99.90;;;;;;4039123;29;20213;-84
2021/07/26 06:15:14;;;;;;;16.08;6.03;;;19.90;99.90;;;;;;4022188;29;20264;-85
2021/07/26 06:17:17;;;;;;;12.38;5.43;;;19.90;99.90;;;;;;4037357;29;20263;-84
2021/07/26 06:19:18;;;;;;;11.35;5.10;;;19.60;99.90;;;;;;4038168;29;20178;-85
2021/07/26 06:21:20;;;;;;;10.93;5.50;;;19.40;99.90;;;;;;4037956;29;20181;-85
2021/07/26 06:23:21;;;;;;;9.52;5.63;;;19.30;99.90;;;;;;4037946;29;20174;-85
2021/07/26 06:25:21;;;;;;;8.85;5.90;;;19.30;99.90;;;;;;4022534;29;20198;-85
2021/07/26 06:27:22;;;;;;;15.15;6.28;;;19.30;99.90;;;;;;4052928;29;20233;-85
2021/07/26 06:29:24;;;;;;;13.07;7.82;;;19.30;99.90;;;;;;4037908;29;20181;-86
2021/07/26 06:31:25;;;;;;;14.73;10.63;;;19.30;99.90;;;;;;4022524;29;20178;-85
2021/07/26 06:33:26;;;;;;;16.45;11.77;;;19.30;99.90;;;;;;4037668;29;20220;-84
2021/07/26 06:35:26;;;;;;;21.05;13.23;;;19.30;99.90;;;;;;4053042;29;20725;-86
2021/07/26 06:37:27;;;;;;;23.35;13.77;;;19.30;99.90;;;;;;4037860;29;20181;-93
2021/07/26 06:39:28;;;;;;;25.50;14.82;;;19.40;99.90;;;;;;4052833;29;20173;-85
2021/07/26 06:41:28;;;;;;;28.45;17.75;;;19.40;99.90;;;;;;4037518;29;20178;-85
2021/07/26 06:43:29;;;;;;;28.25;18.70;;;19.40;99.90;;;;;;4037502;29;20551;-93
2021/07/26 06:45:30;;;;;;;29.20;18.33;;;19.50;99.90;;;;;;4022050;29;20210;-85
2021/07/26 06:47:30;;;;;;;34.80;19.52;;;19.60;99.90;;;;;;4037645;29;20177;-92
2021/07/26 06:49:31;;;;;;;29.67;18.38;;;19.60;99.90;;;;;;4052842;29;20184;-86
2021/07/26 06:51:32;;;;;;;26.83;17.95;;;19.80;99.90;;;;;;4021851;29;20263;-86
2021/07/26 06:53:33;;;;;;;31.08;19.05;;;20.00;99.90;;;;;;4053027;29;20220;-86
2021/07/26 06:55:37;;;;;;;26.13;19.13;;;20.00;99.90;;;;;;4022809;29;20210;-85
2021/07/26 06:57:38;;;;;;;28.20;20.20;;;20.20;99.90;;;;;;4022889;29;20191;-86
2021/07/26 06:59:38;;;;;;;29.60;20.75;;;20.10;99.90;;;;;;4037962;29;20261;-85
2021/07/26 07:01:39;;;;;;;31.77;19.70;;;20.00;99.90;;;;;;4053218;29;20191;-85
2021/07/26 07:03:41;;;;;;;29.08;20.17;;;19.80;99.90;;;;;;4037447;29;20185;-86
2021/07/26 07:05:42;;;;;;;29.40;20.83;;;19.70;99.90;;;;;;4021570;29;20206;-86
2021/07/26 07:07:42;;;;;;;29.42;19.63;;;20.00;99.90;;;;;;4038079;29;20173;-85
2021/07/26 07:09:43;;;;;;;27.45;19.45;;;20.00;99.90;;;;;;4052897;29;20509;-87
2021/07/26 07:11:44;;;;;;;27.88;19.42;;;20.00;99.90;;;;;;4037965;29;20185;-85
2021/07/26 07:13:46;;;;;;;24.20;17.83;;;20.00;99.90;;;;;;4052854;29;20224;-95
2021/07/26 07:15:47;;;;;;;27.50;18.80;;;20.10;99.90;;;;;;4022367;29;20280;-93
2021/07/26 07:17:48;;;;;;;27.92;19.80;;;20.00;99.90;;;;;;4053355;29;20646;-87
2021/07/26 07:19:49;;;;;;;26.98;18.08;;;20.00;99.90;;;;;;4022763;29;20170;-85
2021/07/26 07:21:50;;;;;;;26.83;19.88;;;19.90;99.90;;;;;;4037061;29;20177;-85
2021/07/26 07:23:52;;;;;;;27.98;20.52;;;19.70;99.90;;;;;;4053304;29;20250;-94
2021/07/26 07:25:53;;;;;;;29.15;20.73;;;19.70;99.90;;;;;;4052618;29;20204;-95
2021/07/26 07:27:54;;;;;;;28.75;20.50;;;19.60;99.90;;;;;;4052658;29;20176;-95
2021/07/26 07:29:55;;;;;;;35.80;21.73;;;19.80;99.90;;;;;;4021668;29;20186;-84
2021/07/26 07:31:57;;;;;;;27.48;20.17;;;19.70;99.90;;;;;;4037404;29;20263;-85
2021/07/26 07:33:58;;;;;;;31.30;21.33;;;19.90;99.90;;;;;;4037380;29;20220;-86
2021/07/26 07:36:06;;;;;;;26.48;20.45;;;19.80;99.90;;;;;;4037049;29;20721;-85
2021/07/26 07:38:08;;;;;;;29.75;20.98;;;19.80;99.90;;;;;;4021956;29;20234;-85
2021/07/26 07:40:10;;;;;;;30.23;21.00;;;19.70;99.90;;;;;;4021929;29;20174;-86
2021/07/26 07:42:10;;;;;;;31.08;20.13;;;19.80;99.90;;;;;;4022363;29;20190;-85
2021/07/26 07:44:11;;;;;;;31.88;19.48;;;20.00;99.90;;;;;;4038185;29;20178;-94
2021/07/26 07:46:14;;;;;;;37.90;19.77;;;20.00;99.90;;;;;;4068263;29;20308;-85
2021/07/26 07:48:18;;;;;;;29.45;18.73;;;20.20;99.90;;;;;;4052973;29;20185;-85
2021/07/26 07:50:20;;;;;;;31.25;19.13;;;20.00;99.90;;;;;;4037291;29;20670;-85
2021/07/26 07:52:21;;;;;;;29.13;19.10;;;20.00;99.90;;;;;;4037019;29;20608;-86
2021/07/26 07:54:22;;;;;;;29.52;18.25;;;20.10;99.90;;;;;;4052741;29;20220;-94
2021/07/26 07:56:23;;;;;;;29.75;18.83;;;19.90;99.90;;;;;;4021612;29;20178;-85
2021/07/26 07:58:23;;;;;;;34.53;19.38;;;19.80;99.90;;;;;;4021460;29;20738;-85
2021/07/26 08:00:26;;;;;;;30.05;18.73;;;19.80;99.90;;;;;;4037640;29;20257;-95
2021/07/26 08:02:26;;;;;;;31.67;18.67;;;19.80;99.90;;;;;;4037559;29;20245;-85
2021/07/26 08:04:28;;;;;;;31.77;18.20;;;20.00;99.90;;;;;;4021663;29;20578;-84
2021/07/26 08:06:29;;;;;;;31.17;18.75;;;20.10;99.90;;;;;;4021748;29;20647;-85
2021/07/26 08:08:30;;;;;;;31.77;18.83;;;20.00;99.90;;;;;;4037455;29;20254;-85
2021/07/26 08:10:31;;;;;;;29.67;18.55;;;20.20;99.90;;;;;;4052671;29;20187;-86
2021/07/26 08:12:33;;;;;;;32.85;17.55;;;20.20;99.90;;;;;;4037212;29;20619;-85
2021/07/26 08:14:33;;;;;;;31.88;17.83;;;20.30;99.90;;;;;;4053178;29;20217;-86
2021/07/26 08:16:34;;;;;;;23.10;16.40;;;20.10;99.90;;;;;;4037409;29;20197;-85
2021/07/26 08:18:35;;;;;;;33.30;17.35;;;20.00;99.90;;;;;;4036961;29;20185;-86
2021/07/26 08:20:35;;;;;;;26.42;17.70;;;20.20;99.90;;;;;;4052239;29;20176;-93
2021/07/26 08:22:36;;;;;;;29.63;17.80;;;20.40;99.90;;;;;;4021976;29;20722;-85
2021/07/26 08:24:37;;;;;;;33.20;18.02;;;20.50;99.90;;;;;;4053099;29;20197;-95
2021/07/26 08:26:38;;;;;;;30.42;16.77;;;20.70;99.90;;;;;;4022398;29;20607;-95
2021/07/26 08:28:38;;;;;;;33.03;16.65;;;20.80;99.90;;;;;;4052601;29;20751;-85
2021/07/26 08:30:40;;;;;;;23.23;15.73;;;21.50;99.90;;;;;;4021276;29;20718;-85
2021/07/26 08:32:41;;;;;;;24.98;17.20;;;22.00;99.90;;;;;;4021560;29;20872;-85
2021/07/26 08:34:42;;;;;;;28.95;17.80;;;22.00;99.90;;;;;;4036985;29;20307;-85
2021/07/26 08:36:43;;;;;;;26.10;17.13;;;22.10;99.90;;;;;;4022492;29;20178;-94
2021/07/26 08:38:43;;;;;;;31.42;16.73;;;21.90;99.90;;;;;;4038226;29;20177;-94
2021/07/26 08:40:45;;;;;;;30.98;16.63;;;21.30;99.90;;;;;;4024697;29;20244;-85
2021/07/26 08:42:46;;;;;;;30.00;16.23;;;21.30;99.90;;;;;;4039925;29;20186;-86
2021/07/26 08:44:47;;;;;;;25.75;15.10;;;21.10;99.90;;;;;;4041515;29;20201;-95
2021/07/26 08:46:51;;;;;;;29.70;16.10;;;20.80;99.90;;;;;;4025775;29;20182;-85
2021/07/26 08:48:52;;;;;;;27.98;15.30;;;20.50;99.90;;;;;;4025438;29;20174;-86
2021/07/26 08:50:56;;;;;;;27.45;14.88;;;20.50;99.90;;;;;;4040054;29;20188;-86
2021/07/26 08:52:57;;;;;;;23.90;15.05;;;20.60;99.90;;;;;;4025505;29;20183;-85
2021/07/26 08:54:58;;;;;;;27.38;15.30;;;20.90;99.90;;;;;;4056290;29;20201;-93
2021/07/26 08:57:01;;;;;;;24.75;15.25;;;21.00;99.90;;;;;;4055095;29;20173;-94
2021/07/26 08:59:02;;;;;;;26.08;14.23;;;20.70;99.90;;;;;;4024775;29;20182;-94
2021/07/26 09:01:02;;;;;;;32.45;15.00;;;20.80;99.90;;;;;;4039584;29;20225;-96
2021/07/26 09:03:03;;;;;;;23.45;13.70;;;21.20;99.90;;;;;;4057749;29;20181;-93
2021/07/26 09:05:07;;;;;;;23.38;13.13;;;21.30;99.90;;;;;;4011122;29;20232;-87
2021/07/26 09:07:08;;;;;;;26.73;13.55;;;21.30;99.90;;;;;;4040149;29;20634;-86
2021/07/26 09:09:09;;;;;;;33.85;14.77;;;21.60;99.90;;;;;;4025317;29;20171;-87
2021/07/26 09:11:10;;;;;;;19.85;12.75;;;22.00;99.90;;;;;;4041238;29;20201;-95
2021/07/26 09:13:12;;;;;;;26.73;12.63;;;22.00;99.90;;;;;;4040359;29;20706;-94
2021/07/26 09:15:16;;;;;;;20.92;12.73;;;22.30;99.90;;;;;;4024844;29;20202;-86
2021/07/26 09:17:16;;;;;;;31.80;13.00;;;23.10;99.90;;;;;;4025246;29;20215;-87
2021/07/26 09:19:17;;;;;;;21.50;11.75;;;23.40;99.90;;;;;;4042041;29;20186;-85
2021/07/26 09:21:17;;;;;;;25.77;12.60;;;23.30;99.90;;;;;;4041324;29;20541;-87
2021/07/26 09:23:19;;;;;;;21.02;11.73;;;22.80;99.90;;;;;;4072662;29;20199;-87
2021/07/26 09:25:24;;;;;;;24.23;11.52;;;22.20;99.90;;;;;;4042257;29;20733;-87
2021/07/26 09:27:25;;;;;;;19.77;11.73;;;21.70;99.90;;;;;;4040686;29;20667;-86
2021/07/26 09:29:30;;;;;;;23.13;12.40;;;21.50;99.90;;;;;;4040291;29;20184;-92
2021/07/26 09:31:31;;;;;;;20.98;11.30;;;21.80;99.90;;;;;;4055748;29;20179;-87
2021/07/26 09:33:32;;;;;;;24.98;12.18;;;22.10;99.90;;;;;;4025163;29;20702;-87
2021/07/26 09:35:32;;;;;;;19.27;11.07;;;22.50;99.90;;;;;;4055472;29;20619;-87
2021/07/26 09:37:33;;;;;;;18.48;10.77;;;22.40;99.90;;;;;;4040454;29;20218;-86
2021/07/26 09:39:34;;;;;;;24.42;11.45;;;22.60;99.90;;;;;;4040263;29;20192;-91
2021/07/26 09:41:45;;;;;;;19.02;11.50;;;23.00;99.90;;;;;;4024284;29;20210;-87
2021/07/26 09:43:46;;;;;;;18.75;10.45;;;23.40;99.90;;;;;;4055236;29;20177;-87
2021/07/26 09:45:48;;;;;;;21.05;11.77;;;24.00;99.90;;;;;;4023736;29;20218;-87
2021/07/26 09:48:09;;;;;;;20.98;11.23;;;23.90;99.90;;;;;;4024498;29;20636;-86
2021/07/26 09:50:11;;;;;;;17.80;10.38;;;23.50;99.90;;;;;;4023495;29;20213;-86
2021/07/26 09:52:12;;;;;;;20.35;10.25;;;23.50;99.90;;;;;;4038527;29;20181;-87
2021/07/26 09:54:13;;;;;;;17.20;9.40;;;23.40;99.90;;;;;;4024278;29;20689;-86
2021/07/26 09:56:14;;;;;;;18.33;10.55;;;23.30;99.90;;;;;;4054674;29;20185;-87
2021/07/26 09:58:19;;;;;;;15.38;10.07;;;23.10;99.90;;;;;;4023445;29;20178;-85
2021/07/26 10:00:19;;;;;;;16.70;10.07;;;22.80;99.90;;;;;;4023738;29;20242;-85
2021/07/26 10:02:23;;;;;;;17.13;9.75;;;22.90;99.90;;;;;;4039306;29;20213;-86
2021/07/26 10:04:27;;;;;;;17.05;10.00;;;23.30;99.90;;;;;;4038986;29;20180;-85
2021/07/26 10:06:28;;;;;;;15.05;10.00;;;23.10;99.90;;;;;;4054612;29;20176;-86
2021/07/26 10:08:29;;;;;;;19.88;9.55;;;22.90;99.90;;;;;;4024700;29;20183;-87
2021/07/26 10:10:38;;;;;;;21.70;10.02;;;22.70;99.90;;;;;;4054352;29;20168;-86
2021/07/26 10:12:41;;;;;;;15.00;9.35;;;22.80;99.90;;;;;;4053803;29;20176;-85
2021/07/26 10:14:43;;;;;;;11.25;8.50;;;23.40;99.90;;;;;;4054280;29;20219;-88
2021/07/26 10:16:43;;;;;;;18.67;9.43;;;23.70;99.90;;;;;;4053468;29;20185;-95
2021/07/26 10:18:45;;;;;;;12.68;8.00;;;23.70;99.90;;;;;;4038196;29;20245;-91
2021/07/26 10:20:56;;;;;;;16.45;9.15;;;24.40;99.90;;;;;;4038230;29;20666;-93
2021/07/26 10:23:10;;;;;;;12.88;8.02;;;24.90;99.90;;;;;;4055561;29;20175;-93
2021/07/26 10:25:17;;;;;;;12.20;8.00;;;24.00;99.90;;;;;;4054903;29;20232;-86
2021/07/26 10:27:27;;;;;;;18.95;8.80;;;23.40;99.90;;;;;;4054015;29;20248;-85
2021/07/26 10:29:49;;;;;;;15.30;9.07;;;22.90;99.90;;;;;;4070246;29;20175;-84